createdAt,value
2023-03-12T00:08:21.702Z,1.8
2023-03-12T00:18:21.377Z,1.3
2023-03-12T00:28:21.456Z,1.2
2023-03-12T00:38:21.543Z,1.6
2023-03-12T00:48:23.641Z,0.3
2023-03-12T00:58:23.455Z,0.4
2023-03-12T01:08:22.778Z,0.9
2023-03-12T01:18:23.871Z,-2.3
2023-03-12T01:28:25.473Z,-0.1
2023-03-12T01:38:25.048Z,-2.4
2023-03-12T01:48:25.566Z,0.3
2023-03-12T01:58:25.754Z,0.4
2023-03-12T02:08:26.010Z,-1
2023-03-12T02:18:26.304Z,0.4
2023-03-12T02:28:26.388Z,0.8
2023-03-12T02:38:26.026Z,1.5
2023-03-12T02:48:26.781Z,0.1
2023-03-12T02:58:27.381Z,0.1
2023-03-12T03:08:07.515Z,-0.6
2023-03-12T03:18:07.492Z,0.9
2023-03-12T03:28:08.552Z,-2.5
2023-03-12T03:38:08.360Z,0.1
2023-03-12T03:48:08.267Z,0.6
2023-03-12T03:58:08.181Z,-2.9
2023-03-12T04:08:09.602Z,-2.8
2023-03-12T04:18:10.934Z,-1.1
2023-03-12T04:28:12.029Z,-0.8
2023-03-12T04:38:13.642Z,-1.1
2023-03-12T04:48:14.578Z,-0.5
2023-03-12T04:58:15.926Z,-0.4
2023-03-12T05:08:16.067Z,0.4
2023-03-12T05:18:16.809Z,-0.4
2023-03-12T05:28:16.927Z,0
2023-03-12T05:38:16.609Z,0.1
2023-03-12T05:48:32.549Z,-0.5
2023-03-12T05:58:50.887Z,-20.5
2023-03-12T06:09:07.336Z,2.4
2023-03-12T06:19:24.249Z,4.1
2023-03-12T06:29:41.486Z,4.3
2023-03-12T06:39:58.282Z,4.8
2023-03-12T06:50:16.506Z,6.1
2023-03-12T07:00:33.874Z,-13.6
2023-03-12T07:10:51.844Z,11
2023-03-12T07:21:09.363Z,11.3
2023-03-12T07:31:28.153Z,13.6
2023-03-12T07:41:46.959Z,16.4
2023-03-12T07:52:04.824Z,-7
2023-03-12T08:02:22.716Z,17.6
2023-03-12T08:12:38.457Z,19.3
2023-03-12T08:22:54.332Z,19.4
2023-03-12T08:33:11.297Z,20.8
2023-03-12T08:43:29.366Z,26.8
2023-03-12T08:53:43.946Z,26.6
2023-03-12T09:08:20.964Z,31.5
2023-03-12T09:18:39.907Z,33.6
2023-03-12T09:28:53.632Z,8.2
2023-03-12T09:39:12.254Z,27.8
2023-03-12T09:49:32.590Z,23.9
2023-03-12T09:59:53.930Z,23.8
2023-03-12T10:10:15.797Z,24
2023-03-12T10:20:36.944Z,24.2
2023-03-12T10:30:58.885Z,24
2023-03-12T10:41:19.605Z,28.3
2023-03-12T10:51:42.173Z,16.8
2023-03-12T11:02:03.714Z,11.9
2023-03-12T11:12:22.970Z,15
2023-03-12T11:22:43.130Z,10
2023-03-12T11:33:03.840Z,10.3
2023-03-12T11:43:40.203Z,7.6
2023-03-12T11:53:42.542Z,0.6
2023-03-12T12:03:59.664Z,11.3
2023-03-12T12:14:14.051Z,6.6
2023-03-12T12:24:31.941Z,9.9
2023-03-12T12:34:47.904Z,10.4
2023-03-12T12:45:06.028Z,10.1
2023-03-12T12:55:19.633Z,10.3
2023-03-12T13:05:29.077Z,6.6
2023-03-12T13:15:36.440Z,3.2
2023-03-12T13:25:42.648Z,4.9
2023-03-12T13:35:47.242Z,6.1
2023-03-12T13:45:51.277Z,4.9
2023-03-12T13:55:54.287Z,4.2
2023-03-12T14:05:58.062Z,4.7
2023-03-12T14:16:00.899Z,8.4
2023-03-12T14:26:04.374Z,3.9
2023-03-12T14:36:07.183Z,3.4
2023-03-12T14:46:10.288Z,3.3
2023-03-12T14:56:12.962Z,2.9
2023-03-12T15:08:10.619Z,3.4
2023-03-12T15:18:14.087Z,2.9
2023-03-12T15:28:16.448Z,2.8
2023-03-12T15:38:18.452Z,2.7
2023-03-12T15:48:19.506Z,8.3
2023-03-12T15:58:18.778Z,5.9
2023-03-12T16:08:19.037Z,6.5
2023-03-12T16:18:20.007Z,1.9
2023-03-12T16:28:22.035Z,5.8
2023-03-12T16:38:23.955Z,5.4
2023-03-12T16:48:26.265Z,1.6
2023-03-12T16:58:30.245Z,1
2023-03-12T17:08:33.271Z,0.5
2023-03-12T17:18:37.423Z,3.4
2023-03-12T17:28:36.648Z,3.4
2023-03-12T17:38:37.342Z,0.8
2023-03-12T17:48:37.473Z,4.6
2023-03-12T17:58:37.832Z,3.1
2023-03-12T18:08:40.099Z,3.7
2023-03-12T18:18:39.540Z,0.3
2023-03-12T18:28:39.927Z,2.6
2023-03-12T18:38:39.925Z,2.4
2023-03-12T18:48:42.330Z,3.4
2023-03-12T18:58:40.358Z,2.9
2023-03-12T19:08:40.377Z,1.7
2023-03-12T19:18:40.687Z,2.8
2023-03-12T19:28:40.800Z,1.6
2023-03-12T19:38:40.898Z,1.3
2023-03-12T19:48:41.970Z,-1.5
2023-03-12T19:58:42.449Z,1.8
2023-03-12T20:08:42.072Z,1.2
2023-03-12T20:18:42.167Z,1.3
2023-03-12T20:28:42.408Z,0.8
2023-03-12T20:38:42.345Z,-0.2
2023-03-12T20:48:43.772Z,0.1
2023-03-12T20:58:42.951Z,0.5
2023-03-12T21:08:08.325Z,0.4
2023-03-12T21:18:08.440Z,0.6
2023-03-12T21:28:08.690Z,1.1
2023-03-12T21:38:09.207Z,-0.4
2023-03-12T21:48:10.147Z,-2.7
2023-03-12T21:58:10.538Z,-2.6
2023-03-12T22:08:12.076Z,-0.3
2023-03-12T22:18:13.079Z,-0.3
2023-03-12T22:28:14.340Z,-0.1
2023-03-12T22:38:16.417Z,-0.4
2023-03-12T22:48:18.769Z,-0.3
2023-03-12T22:58:21.113Z,0.3
2023-03-12T23:08:21.095Z,-0.6
2023-03-12T23:18:21.513Z,-0.4
2023-03-12T23:28:21.974Z,0.1
2023-03-12T23:38:22.709Z,-0.6
2023-03-12T23:48:23.364Z,-1.5
2023-03-12T23:58:23.684Z,-0.9
